Geroi Shipki — EOIB — position and weather

sailwx.info

Track history (hours):
 
Tides and Currents Weather Stations Pressure Air Temp Water Temp Dewpoint Dewpoint Depression Visibility Wind Speed Wind Dir Waves Ship Positions

Geroi Shipki

Last reported at 2014-Jul-29 02:33 UTC. Time now 2014-Aug-01 14:01 UTC.
Position N 43°47' E 035°03'.

Length 184 m; draft 6.1 m.

Type: Cargo ship. MMSI: 272976000.

Date/timePositionNaut miles runAvg speedWind from/ knotsBaromVisibWave heightAir tempDewpointWater temp
2014-Jul-29 02:33N 43°47' E 035°03'1211.4
2014-Jul-29 01:31N 43°51' E 034°48'1110.9
2014-Jul-29 00:31N 43°55' E 034°34'7610.4
2014-Jul-28 17:12N 44°35' E 033°04'1011.3
2014-Jul-28 16:19N 44°42' E 032°54'1011.5
2014-Jul-28 15:26N 44°50' E 032°45'1011.6
2014-Jul-28 14:33N 44°57' E 032°35'5011.6
2014-Jul-28 10:12N 45°34' E 031°47'711.5
2014-Jul-28 09:33N 45°39' E 031°39'4811.5
2014-Jul-28 05:25N 46°15' E 030°54'1010.1
2014-Jul-28 04:27N 46°19' E 030°41'88 1.9
2014-Jul-26 06:07N 45°19' E 032°12'15 9.3
2014-Jul-26 04:31N 45°07' E 032°27'26 8.6
2014-Jul-26 01:31N 44°48' E 032°51'72 8.7
2014-Jul-25 17:21N 44°03' E 034°09'911.5
2014-Jul-25 16:33N 44°00' E 034°20'1313.2
2014-Jul-25 15:33N 43°56' E 034°38'1313.0
2014-Jul-25 14:33N 43°51' E 034°55'14712.3
2014-Jul-25 02:33N 43°02' E 038°06'  
2014-Jul-21 15:33N 43°42' E 035°24'1311.9
2014-Jul-21 14:27N 43°46' E 035°06'1112.0
2014-Jul-21 13:33N 43°50' E 034°52'1211.9
2014-Jul-21 12:33N 43°54' E 034°37'1211.7
2014-Jul-21 11:32N 43°58' E 034°21'13811.5
2014-Jul-20 23:32N 45°29' E 031°55'1212.1
2014-Jul-20 22:33N 45°37' E 031°43'1212.0
2014-Jul-20 21:33N 45°47' E 031°32'1212.3
2014-Jul-20 20:33N 45°56' E 031°21'1212.2
2014-Jul-20 19:33N 46°05' E 031°08'1711.8
2014-Jul-20 18:05N 46°16' E 030°50'50 1.4
2014-Jul-19 06:29N 45°43' E 031°44'8 8.3
2014-Jul-19 05:33N 45°37' E 031°51'  
Track history (hours):
 
Tides and Currents Weather Stations Pressure Air Temp Water Temp Dewpoint Dewpoint Depression Visibility Wind Speed Wind Dir Waves Ship Positions

Geroi Shipki

Last reported at 2014-Jul-29 02:33 UTC. Time now 2014-Aug-01 14:01 UTC.
Position N 43°47' E 035°03'.

Length 184 m; draft 6.1 m.

Type: Cargo ship. MMSI: 272976000.

Date/timePositionNaut miles runAvg speedWind from/ knotsBaromVisibWave heightAir tempDewpointWater temp
2014-Jul-29 02:33N 43°47' E 035°03'1211.4
2014-Jul-29 01:31N 43°51' E 034°48'1110.9
2014-Jul-29 00:31N 43°55' E 034°34'7610.4
2014-Jul-28 17:12N 44°35' E 033°04'1011.3
2014-Jul-28 16:19N 44°42' E 032°54'1011.5
2014-Jul-28 15:26N 44°50' E 032°45'1011.6
2014-Jul-28 14:33N 44°57' E 032°35'5011.6
2014-Jul-28 10:12N 45°34' E 031°47'711.5
2014-Jul-28 09:33N 45°39' E 031°39'4811.5
2014-Jul-28 05:25N 46°15' E 030°54'1010.1
2014-Jul-28 04:27N 46°19' E 030°41'88 1.9
2014-Jul-26 06:07N 45°19' E 032°12'15 9.3
2014-Jul-26 04:31N 45°07' E 032°27'26 8.6
2014-Jul-26 01:31N 44°48' E 032°51'72 8.7
2014-Jul-25 17:21N 44°03' E 034°09'911.5
2014-Jul-25 16:33N 44°00' E 034°20'1313.2
2014-Jul-25 15:33N 43°56' E 034°38'1313.0
2014-Jul-25 14:33N 43°51' E 034°55'14712.3
2014-Jul-25 02:33N 43°02' E 038°06'  
2014-Jul-21 15:33N 43°42' E 035°24'1311.9
2014-Jul-21 14:27N 43°46' E 035°06'1112.0
2014-Jul-21 13:33N 43°50' E 034°52'1211.9
2014-Jul-21 12:33N 43°54' E 034°37'1211.7
2014-Jul-21 11:32N 43°58' E 034°21'13811.5
2014-Jul-20 23:32N 45°29' E 031°55'1212.1
2014-Jul-20 22:33N 45°37' E 031°43'1212.0
2014-Jul-20 21:33N 45°47' E 031°32'1212.3
2014-Jul-20 20:33N 45°56' E 031°21'1212.2
2014-Jul-20 19:33N 46°05' E 031°08'1711.8
2014-Jul-20 18:05N 46°16' E 030°50'50 1.4
2014-Jul-19 06:29N 45°43' E 031°44'8 8.3
2014-Jul-19 05:33N 45°37' E 031°51'  

Dump ship's entire track history